Latest Weather Observations for Pearce

IDW60801

Issued at 5:34 am WST Thursday 17 August 2017 (issued every 30 minutes, with the page automatically refreshed every 10 minutes)

About weather observations | Map of weather stations | Latest weather observations for WA | Other Formats
Station Details ID: 009053 Name: PEARCE RAAF Lat: -31.67 Lon: 116.02 Height: 40.0 m
Data from the previous 72 hours. | See also: Recent months at Pearce
Date/Time
WST
Temp
°C
App
Temp
°C
Dew
Point
°C
Rel
Hum
%
Delta-T
°C
Wind Press
QNH
hPa
Press
MSL
hPa
Rain since
9am
mm
Dir  Spd
km/h
Gust
km/h
Spd
kts
Gust
kts
17/05:30am 6.1 2.9 5.1 93 0.4 NNE 11 13 6 7 1020.5 1020.5 0.2
17/05:00am 7.1 5.0 5.7 91 0.6 ENE 6 7 3 4 1020.2 1020.2 0.2
17/04:30am 6.9 4.6 5.5 91 0.6 ENE 7 11 4 6 1020.1 1020.1 0.0
17/04:00am 6.4 3.6 5.2 92 0.5 E 9 11 5 6 1020.2 1020.2 0.0
17/03:30am 6.0 3.5 4.5 90 0.6 E 7 11 4 6 1020.2 1020.2 0.0
17/03:00am 6.6 5.2 5.4 92 0.5 E 2 6 1 3 1020.2 1020.2 0.0
17/02:30am 6.1 3.8 4.7 91 0.6 E 6 9 3 5 1020.3 1020.3 0.0
17/02:00am 7.0 5.6 5.5 90 0.7 E 2 7 1 4 1020.5 1020.5 0.0
17/01:30am 8.1 4.8 6.4 89 0.8 E 13 15 7 8 1020.6 1020.6 0.0
17/01:00am 7.4 4.9 6.5 94 0.4 S 9 11 5 6 1020.9 1020.9 0.0
17/12:30am 6.8 4.2 5.9 94 0.4 S 9 11 5 6 1020.9 1020.9 0.0
17/12:00am 6.8 4.1 5.7 93 0.5 SSE 9 11 5 6 1021.0 1021.0 0.0
 
Date/Time
WST
Temp
°C
App
Temp
°C
Dew
Point
°C
Rel
Hum
%
Delta-T
°C
Wind Press
QNH
hPa
Press
MSL
hPa
Rain since
9am
mm
Dir  Spd
km/h
Gust
km/h
Spd
kts
Gust
kts
16/11:30pm 7.2 4.5 5.8 91 0.6 S 9 11 5 6 1021.1 1021.1 0.0
16/11:00pm 7.5 6.5 5.8 89 0.8 CALM 0 0 0 0 1021.4 1021.4 0.0
16/10:30pm 7.0 4.8 5.3 89 0.8 S 6 9 3 5 1021.5 1021.5 0.0
16/10:00pm 7.4 5.1 5.9 90 0.7 S 7 9 4 5 1021.6 1021.6 0.0
16/09:30pm 8.0 6.6 5.6 85 1.1 S 2 7 1 4 1021.5 1021.5 0.0
16/09:00pm 8.3 6.2 5.8 84 1.1 S 6 9 3 5 1021.6 1021.6 0.0
16/08:30pm 9.9 7.8 5.9 76 1.8 S 6 7 3 4 1021.4 1021.4 0.0
16/08:00pm 10.2 8.5 5.8 74 2.0 S 4 7 2 4 1021.3 1021.3 0.0
16/07:30pm 10.2 7.9 5.8 74 2.0 S 7 13 4 7 1021.1 1021.1 0.0
16/07:00pm 10.4 8.2 6.0 74 2.0 S 7 9 4 5 1020.8 1020.8 0.0
16/06:30pm 11.0 6.3 6.0 71 2.3 S 20 28 11 15 1020.5 1020.5 0.0
16/06:00pm 11.6 7.8 4.1 60 3.4 SW 13 19 7 10 1020.1 1020.1 0.0
16/05:30pm 12.8 8.2 5.5 61 3.4 SSW 19 24 10 13 1019.8 1019.8 0.0
16/05:00pm 13.9 8.2 4.8 54 4.2 SW 24 33 13 18 1019.5 1019.5 0.0
16/04:30pm 14.5 7.6 4.8 52 4.5 WSW 30 37 16 20 1019.4 1019.4 0.0
16/04:00pm 14.9 7.6 4.3 49 4.9 SW 32 46 17 25 1019.2 1019.2 0.0
16/03:30pm 14.4 6.5 4.1 50 4.7 SW 35 46 19 25 1018.9 1018.9 0.0
16/03:19pm 15.4 7.8 3.9 46 5.3 WSW 33 52 18 28 1018.7 1018.7 0.0
16/03:00pm 15.6 8.4 5.2 50 4.9 WSW 32 48 17 26 1018.6 1018.6 0.0
16/02:30pm 15.7 8.6 6.4 54 4.5 WSW 33 44 18 24 1018.7 1018.7 0.0
16/02:04pm 15.1 7.8 5.3 52 4.6 WSW 33 52 18 28 1018.6 1018.6 0.0
16/02:00pm 15.2 7.8 6.7 57 4.1 WSW 35 50 19 27 1018.6 1018.6 0.0
16/01:30pm 14.9 7.8 5.7 54 4.4 WSW 32 44 17 24 1018.8 1018.8 0.0
16/01:00pm 15.7 10.6 7.7 59 4.0 SW 24 35 13 19 1019.0 1019.0 0.0
16/12:30pm 14.3 6.3 9.1 71 2.7 SW 41 56 22 30 1019.3 1019.3 0.0
16/12:21pm 14.5 7.3 7.5 63 3.5 SW 35 50 19 27 1019.1 1019.1 0.0
16/12:00pm 15.2 10.8 7.3 59 3.9 WSW 20 32 11 17 1019.1 1019.1 0.0
16/11:30am 13.5 7.4 8.4 71 2.6 WSW 30 43 16 23 1019.4 1019.4 0.0
16/11:00am 15.0 7.9 6.3 56 4.2 WSW 33 43 18 23 1019.2 1019.2 0.0
16/10:30am 14.9 7.9 6.0 55 4.3 SW 32 46 17 25 1019.4 1019.4 0.0
16/10:00am 14.8 8.0 7.6 62 3.6 WSW 33 50 18 27 1019.1 1019.1 0.0
16/09:53am 14.9 8.1 6.7 58 4.0 WSW 32 50 17 27 1019.1 1019.1 0.0
16/09:30am 14.1 9.1 7.9 66 3.1 WSW 24 32 13 17 1019.0 1019.0 0.0
16/09:16am 13.8 8.9 8.6 71 2.6 WSW 24 35 13 19 1018.9 1018.9 0.0
16/09:00am 13.7 11.8 9.2 74 2.3 SW 9 15 5 8 1018.8 1018.8 6.4
16/08:30am 13.0 11.6 9.4 79 1.8 SW 7 11 4 6 1018.5 1018.5 6.4
16/08:00am 11.9 10.4 10.5 91 0.7 WSW 9 11 5 6 1018.4 1018.4 6.4
16/07:30am 11.5 10.5 10.4 93 0.6 WSW 6 7 3 4 1017.8 1017.8 6.4
16/07:16am 11.4 9.8 10.3 93 0.6 WSW 9 13 5 7 1017.7 1017.7 6.4
16/07:00am 11.5 8.4 10.4 93 0.6 WSW 17 24 9 13 1017.7 1017.7 6.0
16/06:45am 11.6 9.7 10.5 93 0.6 SW 11 17 6 9 1017.6 1017.6 5.0
16/06:30am 11.7 9.8 10.4 92 0.7 SW 11 15 6 8 1017.1 1017.1 4.2
16/06:00am 11.9 9.6 10.5 91 0.7 SW 13 24 7 13 1016.9 1016.9 4.0
16/05:30am 11.8 10.3 10.4 91 0.7 SW 9 15 5 8 1016.6 1016.6 3.6
16/05:00am 10.6 8.4 9.5 93 0.6 N 11 15 6 8 1016.2 1016.2 3.4
16/04:30am 10.0 7.6 8.8 92 0.6 NNW 11 13 6 7 1016.2 1016.2 3.4
16/04:00am 10.5 8.2 9.1 91 0.7 NW 11 13 6 7 1016.2 1016.2 3.2
16/03:30am 10.7 8.5 9.3 91 0.7 NNW 11 15 6 8 1016.3 1016.3 3.2
16/03:00am 10.8 8.2 9.4 91 0.7 NNW 13 15 7 8 1016.5 1016.5 3.2
16/02:30am 10.5 8.2 8.9 90 0.8 NW 11 13 6 7 1016.7 1016.7 3.2
16/02:00am 11.1 9.4 9.7 91 0.7 NW 9 11 5 6 1016.7 1016.7 3.2
16/01:30am 11.3 9.6 9.9 91 0.7 WNW 9 13 5 7 1017.2 1017.2 3.2
16/01:00am 11.5 8.8 9.1 85 1.2 WNW 13 22 7 12 1017.1 1017.1 2.8
16/12:45am 12.2 8.3 9.6 84 1.3 W 20 28 11 15 1017.1 1017.1 2.8
16/12:30am 11.6 5.9 9.9 89 0.9 W 30 41 16 22 1017.3 1017.3 2.8
16/12:25am 11.7 6.9 10.3 91 0.7 W 26 41 14 22 1017.4 1017.4 2.8
16/12:24am 11.7 7.3 10.3 91 0.7 W 24 41 13 22 1017.5 1017.5 2.8
16/12:00am 10.8 9.1 9.7 93 0.6 NW 9 11 5 6 1017.4 1017.4 2.8
 
Date/Time
WST
Temp
°C
App
Temp
°C
Dew
Point
°C
Rel
Hum
%
Delta-T
°C
Wind Press
QNH
hPa
Press
MSL
hPa
Rain since
9am
mm
Dir  Spd
km/h
Gust
km/h
Spd
kts
Gust
kts
15/11:30pm 11.4 9.4 10.1 92 0.7 NW 11 15 6 8 1017.4 1017.4 2.6
15/11:00pm 10.8 9.6 9.7 93 0.6 NW 6 7 3 4 1017.7 1017.7 2.6
15/10:30pm 11.3 10.3 10.2 93 0.6 WSW 6 7 3 4 1018.1 1018.1 2.6
15/10:00pm 11.2 11.3 10.0 92 0.6 CALM 0 6 0 3 1018.3 1018.3 2.6
15/09:30pm 11.7 9.4 10.4 92 0.7 WNW 13 28 7 15 1018.7 1018.7 2.6
15/09:00pm 11.2 9.2 10.0 92 0.6 NNW 11 15 6 8 1018.7 1018.7 2.6
15/08:30pm 11.3 10.2 10.0 92 0.7 WSW 6 7 3 4 1019.0 1019.0 2.6
15/08:00pm 11.5 9.9 10.1 91 0.7 WSW 9 15 5 8 1018.9 1018.9 2.4
15/07:55pm 11.6 9.2 10.2 91 0.7 WSW 13 20 7 11 1018.9 1018.9 -
15/07:39pm 11.6 8.9 10.2 91 0.7 WNW 15 35 8 19 1019.0 1019.0 2.0
15/07:30pm 11.3 10.1 9.7 90 0.8 WNW 6 7 3 4 1018.6 1018.6 1.0
15/07:00pm 11.9 7.4 10.0 88 1.0 WNW 24 41 13 22 1018.6 1018.6 1.0
15/06:30pm 13.2 9.4 8.9 75 2.2 W 19 26 10 14 1018.3 1018.3 1.0
15/06:00pm 13.3 10.0 8.2 71 2.5 W 15 20 8 11 1018.0 1018.0 1.0
15/05:30pm 14.2 10.7 8.6 69 2.8 W 17 24 9 13 1017.9 1017.9 1.0
15/05:00pm 14.5 9.3 8.9 69 2.8 WSW 26 33 14 18 1017.8 1017.8 1.0
15/04:30pm 15.2 10.0 8.9 66 3.2 WSW 26 35 14 19 1017.6 1017.6 1.0
15/04:00pm 15.9 10.4 7.7 58 4.1 W 26 37 14 20 1017.3 1017.3 1.0
15/03:30pm 16.1 11.5 9.8 66 3.3 W 24 30 13 16 1017.3 1017.3 1.0
15/03:07pm 15.1 10.9 9.7 70 2.8 W 22 30 12 16 1017.3 1017.3 1.0
15/03:00pm 14.8 9.9 10.0 73 2.5 W 26 35 14 19 1017.4 1017.4 1.0
15/02:42pm 14.8 9.3 9.0 68 3.0 WSW 28 46 15 25 1017.3 1017.3 1.0
15/02:30pm 14.9 11.1 11.3 79 1.9 W 22 33 12 18 1017.2 1017.2 1.0
15/02:26pm 14.4 10.4 10.6 78 2.0 W 22 33 12 18 1017.1 1017.1 1.0
15/02:09pm 12.8 5.3 9.4 80 1.7 W 39 57 21 31 1017.4 1017.4 1.0
15/02:03pm 15.5 9.4 8.3 62 3.6 W 30 50 16 27 1017.0 1017.0 0.2
15/02:00pm 16.0 9.8 7.7 58 4.2 WSW 30 44 16 24 1016.9 1016.9 0.2
15/01:30pm 14.7 7.7 9.9 73 2.5 WSW 37 57 20 31 1017.2 1017.2 0.2
15/01:23pm 14.2 7.2 8.6 69 2.8 W 35 57 19 31 1017.0 1017.0 0.2
15/01:00pm 16.2 9.8 8.7 61 3.8 WSW 32 46 17 25 1016.9 1016.9 0.2
15/12:55pm 16.1 10.6 9.3 64 3.5 WSW 28 46 15 25 1016.9 1016.9 0.2
15/12:30pm 14.6 10.2 10.4 76 2.2 WSW 24 37 13 20 1017.2 1017.2 0.2
15/12:00pm 16.4 9.4 8.6 60 4.0 WSW 35 46 19 25 1017.0 1017.0 0.2
15/11:35am 15.7 9.2 8.0 60 3.9 WSW 32 54 17 29 1017.1 1017.1 0.2
15/11:30am 16.3 10.8 10.4 68 3.1 WSW 30 44 16 24 1017.2 1017.2 0.2
15/11:08am 15.5 9.0 8.0 61 3.8 WSW 32 44 17 24 1017.4 1017.4 0.2
15/11:00am 15.3 11.0 10.7 74 2.4 W 24 33 13 18 1017.4 1017.4 0.2
15/10:30am 14.1 8.1 8.5 69 2.8 WSW 30 48 16 26 1017.3 1017.3 0.2
15/10:00am 15.1 11.4 10.3 73 2.5 W 20 32 11 17 1017.0 1017.0 0.2
15/09:30am 12.4 7.4 9.4 82 1.5 W 26 41 14 22 1017.0 1017.0 0.2
15/09:00am 11.0 5.0 8.8 86 1.1 W 30 50 16 27 1016.7 1016.7 9.2
15/08:50am 12.4 7.5 8.5 77 1.9 WNW 24 46 13 25 1016.7 1016.7 8.6
15/08:30am 13.2 10.3 8.3 72 2.4 WSW 13 20 7 11 1016.2 1016.2 8.6
15/08:00am 12.5 9.5 7.8 73 2.3 WNW 13 26 7 14 1015.8 1015.8 8.6
15/07:30am 11.4 7.5 7.1 75 2.1 SW 17 24 9 13 1015.3 1015.2 8.6
15/07:00am 11.0 6.7 7.9 81 1.5 SW 20 39 11 21 1014.7 1014.7 8.6
15/06:30am 11.4 5.9 7.5 77 1.9 W 26 39 14 21 1014.1 1014.1 8.6
15/06:16am 11.2 5.3 7.7 79 1.7 W 28 52 15 28 1014.0 1014.0 8.6
15/06:00am 12.0 7.1 6.9 71 2.4 W 22 30 12 16 1013.6 1013.6 8.2
15/05:30am 10.7 7.4 7.9 83 1.4 W 15 20 8 11 1013.2 1013.2 8.2
15/05:00am 10.2 7.3 8.3 88 0.9 W 13 19 7 10 1012.8 1012.8 8.2
15/04:33am 10.1 1.7 7.2 82 1.4 WSW 41 59 22 32 1012.5 1012.5 8.2
15/04:30am 10.3 1.7 6.6 78 1.7 WSW 41 59 22 32 1012.6 1012.6 8.2
15/04:24am 12.4 6.4 7.1 70 2.6 W 28 56 15 30 1012.7 1012.7 7.8
15/04:00am 11.5 7.3 8.4 81 1.5 WSW 20 30 11 16 1011.9 1011.9 7.8
15/03:40am 12.3 7.1 8.8 79 1.8 W 26 46 14 25 1011.8 1011.8 7.8
15/03:30am 12.5 9.0 8.6 77 1.9 W 17 20 9 11 1011.5 1011.5 7.8
15/03:00am 12.5 8.3 8.2 75 2.1 W 20 32 11 17 1011.4 1011.4 7.6
15/02:30am 12.3 7.3 8.2 76 2.0 WSW 24 35 13 19 1011.4 1011.4 7.6
15/02:00am 12.0 7.1 8.5 79 1.7 NW 24 35 13 19 1011.1 1011.1 7.6
15/01:30am 10.9 8.3 9.2 89 0.8 NNW 13 19 7 10 1011.1 1011.1 7.6
15/01:00am 11.5 8.5 9.4 87 1.1 NW 15 22 8 12 1011.1 1011.1 7.4
15/12:30am 11.3 7.9 9.2 87 1.1 NW 17 22 9 12 1011.1 1011.1 7.4
15/12:19am 11.3 7.3 9.0 86 1.1 WNW 20 30 11 16 1011.2 1011.2 7.4
15/12:07am 11.5 6.7 8.9 84 1.3 WNW 24 35 13 19 1011.3 1011.3 7.4
15/12:00am 11.8 7.9 9.4 85 1.2 WNW 20 28 11 15 1011.6 1011.6 6.8
 
Date/Time
WST
Temp
°C
App
Temp
°C
Dew
Point
°C
Rel
Hum
%
Delta-T
°C
Wind Press
QNH
hPa
Press
MSL
hPa
Rain since
9am
mm
Dir  Spd
km/h
Gust
km/h
Spd
kts
Gust
kts
14/11:30pm 11.5 7.0 8.7 83 1.4 WNW 22 30 12 16 1011.1 1011.1 6.6
14/11:00pm 11.5 8.3 9.8 89 0.9 NW 17 20 9 11 1011.4 1011.4 6.0
14/10:43pm 11.8 8.7 10.2 90 0.8 WNW 17 24 9 13 1011.4 1011.4 6.0
14/10:30pm 12.1 6.1 10.2 88 1.0 WNW 32 52 17 28 1011.6 1011.6 6.0
14/10:29pm 12.1 6.5 10.2 88 1.0 WNW 30 52 16 28 1011.7 1011.7 6.0
14/10:25pm 12.2 7.7 10.1 87 1.1 NW 24 52 13 28 1011.8 1011.8 6.0
14/10:00pm 12.3 9.1 10.0 86 1.2 NW 17 22 9 12 1011.5 1011.5 5.2
14/09:30pm 12.0 8.8 10.1 88 1.0 NW 17 22 9 12 1011.6 1011.6 5.2
14/09:00pm 12.1 7.2 9.8 86 1.2 WNW 26 39 14 21 1011.8 1011.8 5.2
14/08:30pm 13.0 9.3 9.4 79 1.8 WNW 19 28 10 15 1011.7 1011.7 4.4
14/08:00pm 12.9 8.8 10.1 83 1.4 W 22 35 12 19 1011.4 1011.4 4.4
14/07:54pm 13.2 9.4 9.8 80 1.7 WNW 20 35 11 19 1011.5 1011.5 4.4
14/07:30pm 12.3 9.9 9.9 85 1.2 NW 13 17 7 9 1011.1 1011.1 4.4
14/07:16pm 12.8 9.6 10.0 83 1.4 NW 17 22 9 12 1011.0 1011.0 4.4
14/07:00pm 12.7 8.9 9.9 83 1.4 NW 20 32 11 17 1011.0 1011.0 4.4
14/06:30pm 13.4 8.0 9.6 78 1.9 NW 28 39 15 21 1010.6 1010.6 4.0
14/06:00pm 14.7 10.7 8.9 68 3.0 WNW 20 26 11 14 1010.3 1010.3 4.0
14/05:30pm 14.2 9.6 9.6 74 2.4 WNW 24 41 13 22 1009.9 1009.9 4.0
14/05:00pm 15.6 10.9 9.1 65 3.3 WNW 24 32 13 17 1009.8 1009.8 4.0
14/04:30pm 15.6 9.0 7.6 59 4.0 WNW 32 46 17 25 1009.6 1009.6 4.0
14/04:00pm 16.6 8.8 8.1 57 4.3 WNW 39 54 21 29 1009.2 1009.2 4.0
14/03:35pm 16.5 9.1 8.5 59 4.1 W 37 59 20 32 1009.2 1009.2 4.0
14/03:30pm 16.2 8.4 8.4 60 4.0 W 39 54 21 29 1009.2 1009.2 4.0
14/03:19pm 16.9 9.2 8.8 59 4.2 W 39 57 21 31 1009.1 1009.1 4.0
14/03:00pm 16.6 8.8 8.3 58 4.2 W 39 54 21 29 1009.0 1009.0 4.0
14/02:30pm 17.4 9.4 9.1 58 4.3 W 41 61 22 33 1008.7 1008.7 4.0
14/02:00pm 16.4 9.0 10.0 66 3.4 W 39 57 21 31 1008.9 1008.9 4.0
14/01:30pm 17.3 9.6 10.0 62 3.9 WNW 41 59 22 32 1008.6 1008.6 4.0
14/01:00pm 15.8 8.0 11.0 73 2.6 WNW 43 63 23 34 1008.6 1008.6 4.0
14/12:46pm 17.2 11.1 11.9 71 2.9 WNW 35 56 19 30 1008.4 1008.4 4.0
14/12:30pm 16.0 10.8 13.5 85 1.4 WNW 33 46 18 25 1008.6 1008.6 4.0
14/12:00pm 15.6 10.0 13.3 86 1.3 W 35 50 19 27 1008.7 1008.7 3.6
14/11:43am 15.3 9.0 12.4 83 1.6 WNW 37 50 20 27 1008.6 1008.6 3.6
14/11:30am 17.2 12.0 12.9 76 2.4 WNW 32 44 17 24 1008.3 1008.3 3.0
14/11:16am 16.1 11.3 13.0 82 1.7 WNW 30 52 16 28 1008.5 1008.5 3.0
14/11:09am 15.6 10.5 13.1 85 1.4 WNW 32 43 17 23 1008.4 1008.4 3.0
14/11:00am 14.9 9.7 13.3 90 0.9 WNW 33 48 18 26 1008.5 1008.5 3.0
14/10:53am 14.8 8.8 13.2 90 0.9 WNW 37 50 20 27 1008.5 1008.5 3.0
14/10:45am 15.0 9.4 13.4 90 0.9 WNW 35 50 19 27 1008.3 1008.3 2.8
14/10:30am 14.8 7.7 13.5 92 0.7 WNW 43 57 23 31 1008.0 1008.0 2.8
14/10:21am 15.4 10.4 13.9 91 0.8 NW 33 52 18 28 1007.8 1007.8 2.2
14/10:20am 15.6 10.8 14.1 91 0.9 NW 32 46 17 25 1007.7 1007.7 2.2
14/10:00am 15.4 11.9 14.4 94 0.6 NW 26 32 14 17 1007.6 1007.6 2.0
14/09:39am 15.0 10.1 13.7 92 0.7 NW 32 44 17 24 1007.3 1007.3 1.6
14/09:30am 14.9 7.9 13.6 92 0.7 NW 43 69 23 37 1007.2 1007.2 1.6
14/09:20am 15.4 10.0 13.8 90 0.9 NW 35 70 19 38 1006.9 1006.9 1.6
14/09:18am 15.9 11.5 14.1 89 1.0 NW 30 52 16 28 1006.5 1006.5 1.2
14/09:00am 16.0 13.9 14.7 92 0.7 N 19 28 10 15 1006.4 1006.4 12.0
14/08:40am 15.2 12.1 14.4 95 0.5 NNW 24 32 13 17 1006.9 1006.9 12.0
14/08:30am 14.7 10.6 13.9 95 0.4 NNW 28 39 15 21 1006.8 1006.8 12.0
14/08:03am 14.7 12.1 13.7 94 0.6 N 20 26 11 14 1006.3 1006.3 10.4
14/08:00am 14.7 12.1 13.7 94 0.6 N 20 26 11 14 1006.3 1006.3 10.2
14/07:30am 14.3 11.5 13.2 93 0.6 N 20 24 11 13 1006.5 1006.5 9.6
14/07:00am 13.9 11.0 12.8 93 0.6 N 20 24 11 13 1006.4 1006.4 9.6
14/06:30am 14.1 10.8 12.7 91 0.8 N 22 30 12 16 1006.4 1006.4 9.6
14/06:00am 14.2 10.4 12.4 89 1.0 NNW 24 28 13 15 1006.2 1006.2 9.6

Other Formats:

Comma delimited format used in spreadsheet applications
http://www.bom.gov.au/fwo/IDW60801/IDW60801.94612.axf

JavaScript Object Notation format (JSON) in row-major order
http://www.bom.gov.au/fwo/IDW60801/IDW60801.94612.json